Time;durP1;ratioP1;P1;durP2;ratioP2;P2;SDS_P1;SDS_P2;PMS_P1;PMS_P2;Temp;Humidity;BMP_temperature;BMP_pressure;BME280_temperature;BME280_humidity;BME280_pressure;Samples;Min_cycle;Max_cycle;Signal;HPM_P1;HPM_P2
2022/01/12 00:01:32;;;;;;;11.32;6.22;;;77.00;1664.00;;;;;;5053268;28;20546;-67
2022/01/12 00:03:58;;;;;;;11.35;5.60;;;77.00;1612.80;;;;;;5053090;28;20072;-67
2022/01/12 00:06:24;;;;;;;10.93;6.18;;;76.90;1638.40;;;;;;5051551;28;20061;-67
2022/01/12 00:08:50;;;;;;;9.63;5.80;;;77.00;1664.00;;;;;;5053520;28;20437;-67
2022/01/12 00:11:17;;;;;;;8.93;5.80;;;76.90;1612.80;;;;;;5053384;28;20029;-68
2022/01/12 00:13:43;;;;;;;11.07;5.97;;;76.90;1612.80;;;;;;5053314;28;20028;-67
2022/01/12 00:16:09;;;;;;;12.38;6.40;;;77.00;1638.40;;;;;;5053211;28;20021;-67
2022/01/12 00:18:35;;;;;;;15.98;8.02;;;76.90;1612.80;;;;;;5053394;28;20029;-67
2022/01/12 00:21:01;;;;;;;18.73;8.85;;;76.80;1612.80;;;;;;5054905;28;20132;-67
2022/01/12 00:23:27;;;;;;;15.18;7.30;;;76.90;1638.40;;;;;;5057285;28;20036;-67
2022/01/12 00:26:06;;;;;;;20.40;9.68;;;76.90;1612.80;;;;;;5056937;28;20513;-67
2022/01/12 00:34:05;;;;;;;25.50;10.95;;;76.90;1587.20;;;;;;5056998;28;20493;-68
2022/01/12 00:36:32;;;;;;;17.92;9.75;;;52.10;1638.40;;;;;;5056890;28;20387;-68
2022/01/12 00:38:58;;;;;;;23.05;11.77;;;76.80;1638.40;;;;;;5055615;28;20391;-69
2022/01/12 00:41:24;;;;;;;19.60;10.30;;;52.10;1587.20;;;;;;5056754;28;20025;-68
2022/01/12 00:43:57;;;;;;;21.67;10.70;;;52.10;1638.40;;;;;;5055891;28;20143;-68
2022/01/12 00:46:24;;;;;;;23.85;12.07;;;52.10;1638.40;;;;;;5056628;28;20021;-68
2022/01/12 00:48:53;;;;;;;19.35;10.20;;;51.90;1612.80;;;;;;5056924;28;20021;-68
2022/01/12 00:51:19;;;;;;;15.45;9.32;;;52.00;1638.40;;;;;;5055594;28;20025;-66
2022/01/12 00:53:44;;;;;;;17.63;9.40;;;52.10;1664.00;;;;;;5056698;28;20427;-67
2022/01/12 00:56:10;;;;;;;15.15;9.07;;;52.00;1612.80;;;;;;5055778;28;20052;-66
2022/01/12 00:58:36;;;;;;;18.23;9.85;;;52.00;1638.40;;;;;;5056041;28;20104;-67
2022/01/12 01:01:03;;;;;;;11.73;7.55;;;52.10;1638.40;;;;;;5056456;28;20025;-66
2022/01/12 01:03:30;;;;;;;14.80;8.57;;;52.10;1587.20;;;;;;5056558;28;20021;-66
2022/01/12 01:05:56;;;;;;;17.98;9.90;;;52.00;1638.40;;;;;;5056470;28;20112;-66
2022/01/12 01:08:22;;;;;;;19.38;10.77;;;52.00;1638.40;;;;;;5056446;28;20100;-66
2022/01/12 01:10:51;;;;;;;18.38;10.18;;;51.90;1612.80;;;;;;5056024;28;20033;-66
2022/01/12 01:13:25;;;;;;;20.90;11.05;;;51.80;1638.40;;;;;;5056219;28;20029;-70
2022/01/12 01:16:02;;;;;;;16.02;9.02;;;51.90;1638.40;;;;;;5056337;28;20025;-68
2022/01/12 01:26:46;;;;;;;17.05;8.55;;;52.00;1612.80;;;;;;5055942;28;20071;-67
2022/01/12 01:29:12;;;;;;;16.77;8.68;;;51.90;1612.80;;;;;;5055934;28;20036;-65
2022/01/12 01:31:39;;;;;;;14.05;8.10;;;52.00;1612.80;;;;;;5055747;28;20032;-68
2022/01/12 01:34:11;;;;;;;15.57;8.15;;;51.90;1587.20;;;;;;5054541;28;20025;-68
2022/01/12 01:36:39;;;;;;;13.20;7.40;;;52.00;1612.80;;;;;;5055714;28;20050;-67
2022/01/12 01:39:07;;;;;;;15.30;6.85;;;52.10;1587.20;;;;;;5054585;28;20033;-67
2022/01/12 01:41:34;;;;;;;10.65;6.45;;;51.90;1587.20;;;;;;5055570;28;20459;-66
2022/01/12 01:54:52;;;;;;;7.72;4.72;;;51.90;1638.40;;;;;;5055866;28;20032;-66
2022/01/12 01:57:19;;;;;;;9.52;5.32;;;51.80;1612.80;;;;;;5055286;28;20029;-66
2022/01/12 01:59:45;;;;;;;8.73;5.25;;;51.70;1612.80;;;;;;5055418;28;20044;-70
2022/01/12 02:02:12;;;;;;;6.80;4.00;;;51.80;1638.40;;;;;;5053638;28;20032;-69
2022/01/12 02:04:38;;;;;;;8.20;4.95;;;51.80;1612.80;;;;;;5055280;28;20383;-70
2022/01/12 02:07:04;;;;;;;7.15;4.55;;;51.80;1612.80;;;;;;5055273;28;20021;-69
2022/01/12 02:09:30;;;;;;;11.32;5.10;;;51.90;1638.40;;;;;;5055452;28;20033;-69
2022/01/12 02:11:56;;;;;;;7.10;4.47;;;51.90;1612.80;;;;;;5055008;28;20071;-69
2022/01/12 02:14:22;;;;;;;9.40;4.35;;;51.90;1561.60;;;;;;5055172;28;20459;-68
2022/01/12 02:16:56;;;;;;;9.27;5.18;;;51.90;1587.20;;;;;;5055087;28;20079;-67
2022/01/12 02:19:49;;;;;;;8.13;4.60;;;51.90;1612.80;;;;;;5055097;28;20348;-67
2022/01/12 02:36:28;;;;;;;8.82;5.18;;;51.70;1612.80;;;;;;5072870;28;20035;-64
2022/01/12 02:41:40;;;;;;;10.95;5.60;;;51.60;1587.20;;;;;;5072262;28;20044;-64
2022/01/12 02:55:06;;;;;;;10.13;4.40;;;51.70;1587.20;;;;;;5013323;28;20049;-66
2022/01/12 02:57:33;;;;;;;5.30;3.88;;;51.70;1561.60;;;;;;5012290;28;20268;-67
2022/01/12 03:00:06;;;;;;;8.90;4.57;;;51.60;1587.20;;;;;;5011957;28;20065;-66
2022/01/12 03:02:38;;;;;;;7.88;4.68;;;51.70;1612.80;;;;;;5012281;28;20052;-67
2022/01/12 03:07:40;;;;;;;11.65;5.32;;;51.70;1587.20;;;;;;5012534;28;20473;-67
2022/01/12 03:10:08;;;;;;;6.97;4.47;;;51.70;1587.20;;;;;;5012358;28;20041;-66
2022/01/12 03:12:52;;;;;;;6.22;4.40;;;51.70;1587.20;;;;;;5011979;28;20104;-66
2022/01/12 03:15:18;;;;;;;7.18;4.78;;;51.70;1561.60;;;;;;5012242;28;20041;-65
2022/01/12 03:17:43;;;;;;;11.85;5.30;;;51.80;1587.20;;;;;;5012269;28;20042;-69
2022/01/12 03:20:10;;;;;;;10.93;5.43;;;51.80;1587.20;;;;;;5012448;28;20026;-68
2022/01/12 03:22:37;;;;;;;9.82;4.97;;;51.80;1561.60;;;;;;5011977;28;20085;-68
2022/01/12 03:25:04;;;;;;;10.85;5.03;;;51.80;1561.60;;;;;;5051748;28;20057;-68
2022/01/12 03:27:29;;;;;;;9.85;5.20;;;51.70;1587.20;;;;;;5053903;28;20061;-68
2022/01/12 03:29:56;;;;;;;10.25;5.75;;;51.70;1561.60;;;;;;5053749;28;20481;-69
2022/01/12 04:08:19;;;;;;;7.55;4.00;;;51.40;1561.60;;;;;;5075593;28;20017;-67
2022/01/12 04:10:46;;;;;;;13.23;4.95;;;51.30;1510.40;;;;;;5073460;28;20482;-70
2022/01/12 04:13:13;;;;;;;13.70;5.20;;;51.30;1587.20;;;;;;5057195;28;20035;-70
2022/01/12 04:15:39;;;;;;;10.13;5.50;;;51.40;1587.20;;;;;;5057188;28;20484;-70
2022/01/12 04:18:05;;;;;;;14.50;5.75;;;51.40;1561.60;;;;;;5057318;28;20488;-69
2022/01/12 04:20:31;;;;;;;15.48;5.65;;;51.40;1561.60;;;;;;5057223;28;20033;-65
2022/01/12 04:25:40;;;;;;;8.98;5.10;;;51.40;1510.40;;;;;;5057326;28;20040;-68
2022/01/12 04:28:06;;;;;;;11.38;5.45;;;51.30;1510.40;;;;;;5056761;28;20021;-69
2022/01/12 04:30:32;;;;;;;8.65;5.00;;;51.20;1510.40;;;;;;5057282;28;20021;-68
2022/01/12 04:32:57;;;;;;;11.27;5.22;;;51.20;1536.00;;;;;;5057012;28;20471;-70
2022/01/12 04:35:29;;;;;;;8.52;5.45;;;26.50;1510.40;;;;;;5057111;28;20025;-69
2022/01/12 04:37:55;;;;;;;9.25;5.50;;;26.50;1510.40;;;;;;5056772;28;20021;-70
2022/01/12 04:40:20;;;;;;;11.73;6.20;;;26.50;1510.40;;;;;;5056804;28;20035;-70
2022/01/12 04:42:46;;;;;;;12.68;6.60;;;26.40;1536.00;;;;;;5056193;28;20390;-69
2022/01/12 04:50:25;;;;;;;15.10;7.68;;;26.20;1561.60;;;;;;5056801;28;20104;-67
2022/01/12 04:52:51;;;;;;;18.52;8.40;;;26.10;1561.60;;;;;;5057375;28;20467;-67
2022/01/12 04:55:17;;;;;;;17.58;10.27;;;26.10;1536.00;;;;;;5056675;28;20056;-69
2022/01/12 04:57:43;;;;;;;15.02;7.82;;;26.10;1561.60;;;;;;5056728;28;20374;-66
2022/01/12 05:00:16;;;;;;;15.10;8.65;;;26.00;1561.60;;;;;;5056383;28;20391;-71
2022/01/12 05:08:23;;;;;;;16.65;8.40;;;25.80;1587.20;;;;;;5056797;28;20047;-71
2022/01/12 05:13:36;;;;;;;13.55;7.40;;;25.90;1561.60;;;;;;5056489;28;20498;-65
2022/01/12 05:16:04;;;;;;;16.48;7.63;;;25.90;1587.20;;;;;;5055058;28;20036;-65
2022/01/12 05:18:31;;;;;;;14.07;7.93;;;25.80;1561.60;;;;;;5056324;28;20025;-66
2022/01/12 05:20:58;;;;;;;15.55;8.35;;;25.80;1561.60;;;;;;5056310;28;20029;-66
2022/01/12 05:23:24;;;;;;;17.02;8.35;;;25.80;1587.20;;;;;;5056029;28;20021;-66
2022/01/12 05:25:52;;;;;;;22.45;9.77;;;25.70;1587.20;;;;;;5056156;28;20086;-66
2022/01/12 05:28:19;;;;;;;16.77;10.10;;;25.70;1587.20;;;;;;5056040;28;20020;-65
2022/01/12 05:30:45;;;;;;;27.27;11.35;;;25.70;1587.20;;;;;;5055995;28;20025;-65
2022/01/12 05:33:11;;;;;;;27.65;13.60;;;25.70;1587.20;;;;;;5056368;28;20434;-66
2022/01/12 05:35:37;;;;;;;37.42;17.52;;;25.60;1587.20;;;;;;5055896;28;20048;-65
2022/01/12 05:38:04;;;;;;;34.42;16.35;;;0.90;1612.80;;;;;;5055944;28;20029;-65
2022/01/12 05:40:31;;;;;;;54.38;22.83;;;0.80;1612.80;;;;;;5055748;28;20025;-66
2022/01/12 05:43:00;;;;;;;54.90;22.42;;;0.80;1612.80;;;;;;5055481;28;20033;-66
2022/01/12 05:45:26;;;;;;;53.08;22.50;;;0.70;1638.40;;;;;;5055914;28;20033;-69
2022/01/12 05:50:19;;;;;;;64.82;26.10;;;0.80;1664.00;;;;;;5055242;28;20025;-70
2022/01/12 05:52:45;;;;;;;64.30;26.88;;;25.60;1638.40;;;;;;5055405;28;20029;-70
2022/01/12 05:55:12;;;;;;;57.42;25.50;;;25.60;1612.80;;;;;;5055581;28;20036;-69
2022/01/12 05:57:41;;;;;;;53.78;26.30;;;25.60;1612.80;;;;;;5055251;28;20036;-69
2022/01/12 06:00:10;;;;;;;51.00;24.92;;;25.70;1612.80;;;;;;5055146;28;20056;-69
2022/01/12 06:02:36;;;;;;;43.88;22.60;;;25.70;1612.80;;;;;;5055366;28;20025;-69
2022/01/12 06:05:03;;;;;;;40.90;20.25;;;25.60;1612.80;;;;;;5055706;28;20382;-69
2022/01/12 06:07:29;;;;;;;36.83;17.85;;;25.60;1612.80;;;;;;5053961;28;20427;-69
2022/01/12 06:09:55;;;;;;;33.25;17.23;;;25.70;1587.20;;;;;;5055230;28;20028;-69
2022/01/12 06:12:21;;;;;;;30.70;14.77;;;25.60;1587.20;;;;;;5054924;28;20036;-69
2022/01/12 06:14:47;;;;;;;26.83;13.35;;;25.60;1612.80;;;;;;5055541;28;20043;-69
2022/01/12 06:17:13;;;;;;;26.77;13.23;;;25.60;1612.80;;;;;;5054391;28;20069;-69
2022/01/12 06:19:39;;;;;;;26.33;14.25;;;0.90;1587.20;;;;;;5055043;28;20082;-69
2022/01/12 06:22:06;;;;;;;28.35;14.63;;;0.90;1587.20;;;;;;5054810;28;20053;-68
2022/01/12 06:24:32;;;;;;;35.38;17.20;;;25.60;1612.80;;;;;;5054600;28;20064;-68
2022/01/12 06:26:59;;;;;;;44.25;21.08;;;0.90;1587.20;;;;;;5054828;28;20475;-68
2022/01/12 06:32:11;;;;;;;48.67;24.77;;;0.90;1587.20;;;;;;5052429;28;20133;-65
2022/01/12 06:34:37;;;;;;;56.97;29.80;;;0.90;1587.20;;;;;;5052525;28;20492;-69
2022/01/12 06:37:03;;;;;;;87.55;41.58;;;0.80;1561.60;;;;;;5052393;28;20036;-69
2022/01/12 06:39:29;;;;;;;108.20;47.28;;;0.60;1587.20;;;;;;5052585;28;20040;-69
2022/01/12 06:41:56;;;;;;;102.85;42.00;;;0.50;1612.80;;;;;;5035210;28;20025;-69
2022/01/12 06:44:22;;;;;;;82.50;37.17;;;0.40;1587.20;;;;;;5052052;28;20129;-69
2022/01/12 06:46:50;;;;;;;77.07;36.42;;;0.50;1561.60;;;;;;5052282;28;20487;-69
2022/01/12 06:49:17;;;;;;;71.82;34.25;;;0.40;1587.20;;;;;;5052303;28;20123;-68
2022/01/12 06:51:44;;;;;;;57.92;29.33;;;0.40;1638.40;;;;;;5051805;28;20029;-69
2022/01/12 06:54:10;;;;;;;54.55;28.60;;;0.40;1587.20;;;;;;5051945;28;20503;-63
2022/01/12 06:56:36;;;;;;;49.00;24.13;;;0.40;1561.60;;;;;;5051793;28;20041;-67
2022/01/12 06:59:03;;;;;;;45.20;24.08;;;0.40;1587.20;;;;;;5052069;28;20525;-63
2022/01/12 07:01:29;;;;;;;46.30;24.52;;;0.30;1638.40;;;;;;5052111;28;20029;-62
2022/01/12 07:03:55;;;;;;;50.95;24.65;;;0.30;1587.20;;;;;;5052128;28;20083;-63
2022/01/12 07:06:22;;;;;;;54.53;26.20;;;0.30;1587.20;;;;;;5051679;28;20052;-68
2022/01/12 07:08:48;;;;;;;59.72;29.88;;;0.20;1561.60;;;;;;5052247;28;20403;-67
2022/01/12 07:11:14;;;;;;;65.97;30.35;;;0.10;1612.80;;;;;;5053948;28;20021;-68
2022/01/12 07:13:40;;;;;;;64.32;32.47;;;0.20;1638.40;;;;;;5053826;28;20352;-67
2022/01/12 07:16:06;;;;;;;70.93;33.20;;;0.20;1587.20;;;;;;5053466;28;20033;-67
2022/01/12 07:18:31;;;;;;;97.57;38.03;;;0.10;1561.60;;;;;;5053472;28;20433;-68
2022/01/12 07:20:58;;;;;;;88.28;36.47;;;13.00;1561.60;;;;;;5053558;28;20024;-68
2022/01/12 07:23:24;;;;;;;89.72;35.00;;;13.00;1664.00;;;;;;5053687;28;20024;-66
2022/01/12 07:25:51;;;;;;;73.10;31.70;;;12.90;1664.00;;;;;;5053840;28;20070;-69
2022/01/12 07:28:17;;;;;;;76.80;31.88;;;13.00;1612.80;;;;;;5053515;28;20021;-69
2022/01/12 07:30:42;;;;;;;93.45;35.08;;;13.10;1612.80;;;;;;5052660;28;20036;-63
2022/01/12 07:33:08;;;;;;;80.45;32.60;;;13.30;1638.40;;;;;;5053793;28;20370;-69
2022/01/12 07:35:34;;;;;;;86.43;30.10;;;13.20;1664.00;;;;;;5054005;28;20036;-68
2022/01/12 07:38:00;;;;;;;71.05;28.80;;;13.00;1715.20;;;;;;5053823;28;20461;-66
2022/01/12 07:40:25;;;;;;;62.17;27.35;;;12.90;1664.00;;;;;;5053587;28;20112;-65
2022/01/12 07:42:51;;;;;;;63.22;26.65;;;12.90;1638.40;;;;;;5053289;28;20170;-64
2022/01/12 07:45:18;;;;;;;55.28;25.20;;;12.90;1664.00;;;;;;5052535;28;20041;-61
2022/01/12 07:47:44;;;;;;;52.47;23.83;;;0.00;1664.00;;;;;;5052157;28;20025;-61
2022/01/12 07:50:11;;;;;;;53.45;24.50;;;0.00;1664.00;;;;;;5052227;28;20025;-66
2022/01/12 07:52:37;;;;;;;58.25;25.15;;;0.00;1664.00;;;;;;5052069;28;20067;-67
2022/01/12 07:55:04;;;;;;;55.50;26.00;;;0.00;1638.40;;;;;;5052708;28;20044;-66
2022/01/12 07:57:30;;;;;;;58.10;25.55;;;0.10;1638.40;;;;;;5053321;28;20116;-66
2022/01/12 07:59:56;;;;;;;54.17;25.77;;;0.20;1638.40;;;;;;5051991;28;20041;-64
2022/01/12 08:02:22;;;;;;;57.10;26.63;;;0.40;1817.60;;;;;;5053588;28;20037;-66
2022/01/12 08:04:48;;;;;;;46.30;24.50;;;0.40;1689.60;;;;;;5051999;28;20099;-68
2022/01/12 08:07:14;;;;;;;42.53;20.90;;;0.30;1664.00;;;;;;5053005;28;20028;-65
2022/01/12 08:09:41;;;;;;;37.70;19.42;;;0.20;1638.40;;;;;;5052259;28;20501;-67
2022/01/12 08:12:08;;;;;;;40.50;20.05;;;0.10;1664.00;;;;;;5053312;28;20025;-68
2022/01/12 08:14:33;;;;;;;44.60;21.40;;;0.10;1689.60;;;;;;5053147;28;20021;-67
2022/01/12 08:17:00;;;;;;;41.50;21.88;;;0.20;1689.60;;;;;;5053229;28;20025;-67
2022/01/12 08:19:27;;;;;;;52.25;25.83;;;0.30;1664.00;;;;;;5052183;28;20033;-67
2022/01/12 08:21:52;;;;;;;53.03;25.15;;;0.30;1638.40;;;;;;5053269;28;20036;-67
2022/01/12 08:24:19;;;;;;;50.55;24.20;;;0.20;1664.00;;;;;;5053175;28;20108;-67
2022/01/12 08:26:45;;;;;;;49.40;24.35;;;0.20;1664.00;;;;;;5053287;28;20100;-66
2022/01/12 08:29:14;;;;;;;40.47;21.63;;;0.20;1664.00;;;;;;5053074;28;20440;-67
2022/01/12 08:31:40;;;;;;;46.28;23.13;;;0.20;1638.40;;;;;;5053265;28;20079;-67
2022/01/12 08:34:06;;;;;;;47.63;23.20;;;0.20;1638.40;;;;;;5052991;28;20029;-67
2022/01/12 08:36:32;;;;;;;46.55;22.65;;;0.30;1638.40;;;;;;5053011;28;20542;-66
2022/01/12 08:38:59;;;;;;;50.28;23.52;;;0.20;1638.40;;;;;;5053548;28;20029;-67
2022/01/12 08:41:26;;;;;;;51.80;22.92;;;0.30;1715.20;;;;;;5055630;28;20109;-67
2022/01/12 08:43:52;;;;;;;56.20;24.35;;;0.40;1792.00;;;;;;5056783;28;20060;-64
2022/01/12 08:46:17;;;;;;;71.68;33.78;;;0.60;1792.00;;;;;;5057049;28;20029;-68
2022/01/12 08:48:43;;;;;;;102.25;46.53;;;0.70;1715.20;;;;;;5056934;28;20028;-67
2022/01/12 08:51:09;;;;;;;129.45;60.95;;;0.70;1689.60;;;;;;5056935;28;20060;-67
2022/01/12 08:53:35;;;;;;;177.63;80.72;;;0.90;1689.60;;;;;;5056384;28;20425;-67
2022/01/12 08:56:02;;;;;;;115.40;51.08;;;0.90;1740.80;;;;;;5056133;28;20044;-67
2022/01/12 08:58:28;;;;;;;97.05;44.78;;;25.60;1689.60;;;;;;5056153;28;20120;-67
2022/01/12 09:00:55;;;;;;;86.15;37.38;;;25.60;1689.60;;;;;;5056423;28;20116;-68
2022/01/12 09:03:22;;;;;;;163.27;61.05;;;25.80;1766.40;;;;;;5056339;28;20063;-67
2022/01/12 09:05:49;;;;;;;297.08;57.10;;;25.80;1689.60;;;;;;5056618;28;20074;-63
2022/01/12 09:08:15;;;;;;;256.80;50.08;;;25.80;1689.60;;;;;;5056322;28;20029;-67
2022/01/12 09:10:41;;;;;;;311.73;51.28;;;25.80;1715.20;;;;;;5056498;28;20111;-71
2022/01/12 09:13:07;;;;;;;143.07;42.10;;;25.90;1740.80;;;;;;5056204;28;20045;-68
2022/01/12 09:15:33;;;;;;;143.80;53.33;;;26.00;1740.80;;;;;;5056524;28;20021;-67
2022/01/12 09:17:58;;;;;;;102.50;41.60;;;26.00;1715.20;;;;;;5056431;28;20108;-68
2022/01/12 09:20:25;;;;;;;93.72;38.08;;;26.10;1715.20;;;;;;5055205;28;20467;-67
2022/01/12 09:22:52;;;;;;;67.57;31.90;;;26.20;1689.60;;;;;;5052803;28;20033;-66
2022/01/12 09:25:18;;;;;;;78.03;36.15;;;26.30;1689.60;;;;;;5054501;28;20044;-61
2022/01/12 09:27:44;;;;;;;84.78;35.30;;;26.30;1689.60;;;;;;5055482;28;20386;-78
2022/01/12 09:30:12;;;;;;;72.05;34.00;;;26.20;1689.60;;;;;;5056168;28;20029;-67
2022/01/12 09:32:38;;;;;;;72.90;35.55;;;26.30;1689.60;;;;;;5054538;28;20125;-68
2022/01/12 09:35:04;;;;;;;68.28;31.27;;;26.40;1689.60;;;;;;5056085;28;20120;-68
2022/01/12 09:37:30;;;;;;;77.38;37.22;;;26.50;1689.60;;;;;;5055957;28;20219;-67
2022/01/12 09:39:56;;;;;;;101.93;46.20;;;26.50;1689.60;;;;;;5055480;28;20096;-68
2022/01/12 09:42:22;;;;;;;84.07;41.50;;;51.20;1740.80;;;;;;5054365;28;20048;-68
2022/01/12 09:44:48;;;;;;;86.45;42.13;;;51.30;1689.60;;;;;;5055510;28;20037;-67
2022/01/12 09:47:15;;;;;;;80.03;38.15;;;51.30;1689.60;;;;;;5055823;28;20033;-68
2022/01/12 09:49:44;;;;;;;62.42;30.98;;;51.40;1715.20;;;;;;5054220;28;20041;-68
2022/01/12 09:52:10;;;;;;;65.05;30.85;;;51.40;1689.60;;;;;;5054291;28;20100;-68
2022/01/12 09:54:36;;;;;;;55.90;28.52;;;51.50;1689.60;;;;;;5055629;28;20024;-68
2022/01/12 09:57:03;;;;;;;89.90;40.28;;;51.50;1715.20;;;;;;5055567;28;20067;-70
2022/01/12 09:59:29;;;;;;;72.03;31.48;;;51.50;1715.20;;;;;;5055203;28;20458;-67
2022/01/12 10:01:55;;;;;;;58.72;27.30;;;51.80;1894.40;;;;;;5055238;28;20036;-66
2022/01/12 10:04:24;;;;;;;56.50;25.40;;;52.00;1920.00;;;;;;5054803;28;20041;-66
2022/01/12 10:06:58;;;;;;;63.22;25.23;;;51.90;1715.20;;;;;;5055671;28;20100;-66
2022/01/12 10:09:39;;;;;;;94.32;40.17;;;51.80;1689.60;;;;;;5055045;28;20032;-67
2022/01/12 10:12:13;;;;;;;96.03;40.92;;;51.80;1740.80;;;;;;5054880;28;20107;-69
2022/01/12 10:14:46;;;;;;;85.25;36.00;;;51.80;1715.20;;;;;;5055001;28;20025;-70
2022/01/12 10:17:13;;;;;;;69.32;32.90;;;51.80;1715.20;;;;;;5055213;28;20033;-69
2022/01/12 10:19:40;;;;;;;75.35;34.15;;;51.80;1715.20;;;;;;5055225;28;20028;-63
2022/01/12 10:22:10;;;;;;;94.05;45.42;;;51.80;1715.20;;;;;;5054880;28;20032;-70
2022/01/12 10:24:40;;;;;;;159.45;77.80;;;51.80;1715.20;;;;;;5055050;28;20033;-65
2022/01/12 10:27:20;;;;;;;151.90;68.80;;;51.80;1715.20;;;;;;5052790;28;20482;-64
2022/01/12 10:29:55;;;;;;;158.48;73.32;;;77.00;2176.00;;;;;;5053582;28;20021;-61
2022/01/12 10:32:20;;;;;;;;;;;77.60;2073.60;;;;;;5055371;28;20098;-65
2022/01/12 10:34:48;;;;;;;161.77;90.43;;;102.50;1715.20;;;;;;5053583;28;20355;-66
2022/01/12 10:37:16;;;;;;;132.35;72.38;;;77.70;1612.80;;;;;;5054691;28;20024;-66
2022/01/12 10:39:50;;;;;;;123.75;72.43;;;77.50;1587.20;;;;;;5053710;28;20155;-70
2022/01/12 10:42:22;;;;;;;110.78;67.28;;;77.40;1612.80;;;;;;5054123;28;20033;-76
2022/01/12 10:44:50;;;;;;;94.88;44.25;;;77.70;1689.60;;;;;;5052195;28;20041;-77
2022/01/12 10:47:20;;;;;;;112.72;62.45;;;102.80;1766.40;;;;;;5052910;28;20087;-71
2022/01/12 10:49:55;;;;;;;157.55;90.95;;;102.60;1612.80;;;;;;5053145;28;20383;-75
2022/01/12 10:52:29;;;;;;;103.82;61.28;;;102.60;1587.20;;;;;;5050513;28;20028;-66
2022/01/12 10:54:59;;;;;;;71.38;41.85;;;102.40;1587.20;;;;;;5053025;28;20025;-73
2022/01/12 10:57:32;;;;;;;89.28;41.40;;;102.40;1612.80;;;;;;5051074;28;20037;-66
2022/01/12 11:00:19;;;;;;;74.47;37.35;;;102.40;1740.80;;;;;;5051179;28;20037;-67
2022/01/12 11:02:58;;;;;;;204.80;59.47;;;102.80;1689.60;;;;;;5032512;28;20484;-66
2022/01/12 11:05:28;;;;;;;111.75;56.58;;;102.80;1561.60;;;;;;5052904;28;20045;-66
2022/01/12 11:07:54;;;;;;;89.18;50.22;;;102.60;1536.00;;;;;;5053433;28;20026;-67
2022/01/12 11:10:21;;;;;;;65.25;38.88;;;102.40;1536.00;;;;;;5054205;28;20027;-60
2022/01/12 11:12:48;;;;;;;52.60;30.25;;;77.70;1536.00;;;;;;5052727;28;20028;-67
2022/01/12 11:15:17;;;;;;;50.10;28.13;;;77.60;1561.60;;;;;;5053994;28;20532;-67
2022/01/12 11:17:45;;;;;;;56.72;33.85;;;77.50;1587.20;;;;;;5053768;28;20471;-66
2022/01/12 11:20:22;;;;;;;47.85;28.73;;;77.50;1561.60;;;;;;5054086;28;20112;-66
2022/01/12 11:23:06;;;;;;;45.97;25.35;;;77.40;1587.20;;;;;;5053941;28;20028;-67
2022/01/12 11:25:33;;;;;;;50.03;25.58;;;77.40;1612.80;;;;;;5051947;28;20120;-65
2022/01/12 11:28:18;;;;;;;47.20;24.90;;;77.30;1587.20;;;;;;5053679;28;20033;-66
2022/01/12 11:30:50;;;;;;;50.35;26.98;;;77.30;1587.20;;;;;;5053140;28;20021;-66
2022/01/12 11:33:21;;;;;;;49.17;26.08;;;77.30;1612.80;;;;;;5053814;28;20033;-74
2022/01/12 11:35:52;;;;;;;79.70;47.75;;;77.30;1587.20;;;;;;5053522;28;20036;-67
2022/01/12 11:38:34;;;;;;;103.32;60.67;;;77.20;1612.80;;;;;;5052199;28;20063;-65
2022/01/12 11:41:22;;;;;;;152.65;81.38;;;77.20;1612.80;;;;;;5051771;28;20387;-64
2022/01/12 11:43:50;;;;;;;155.60;79.70;;;77.20;1612.80;;;;;;5050682;28;20120;-62
2022/01/12 11:46:19;;;;;;;107.18;57.00;;;77.20;1612.80;;;;;;5052207;28;20131;-62
2022/01/12 11:48:49;;;;;;;80.18;39.53;;;77.20;1612.80;;;;;;5073873;28;20115;-65
2022/01/12 11:51:17;;;;;;;66.40;34.08;;;77.20;1612.80;;;;;;5052082;28;20483;-66
2022/01/12 11:53:54;;;;;;;58.97;30.00;;;77.20;1587.20;;;;;;5052483;28;20021;-61
2022/01/12 11:56:25;;;;;;;53.00;27.33;;;77.20;1587.20;;;;;;5052740;28;20021;-62
2022/01/12 11:58:58;;;;;;;43.45;24.00;;;77.20;1612.80;;;;;;5051940;28;20084;-61
2022/01/12 12:01:36;;;;;;;42.95;23.27;;;77.20;1587.20;;;;;;5050879;28;20083;-62
2022/01/12 12:04:04;;;;;;;55.90;28.65;;;77.20;1587.20;;;;;;5051241;28;20124;-64
2022/01/12 12:06:30;;;;;;;49.08;25.00;;;77.20;1612.80;;;;;;5045536;28;20087;-65
2022/01/12 12:09:02;;;;;;;59.50;31.33;;;77.20;1612.80;;;;;;5053319;28;20100;-65
2022/01/12 12:11:30;;;;;;;51.55;28.20;;;77.20;1612.80;;;;;;5053597;28;20017;-64
2022/01/12 12:14:01;;;;;;;42.35;23.48;;;77.20;1612.80;;;;;;5053381;28;20021;-61
2022/01/12 12:16:28;;;;;;;46.67;25.27;;;77.10;1587.20;;;;;;5055717;28;20021;-62
2022/01/12 12:18:56;;;;;;;64.93;28.70;;;77.20;1612.80;;;;;;5057294;28;20063;-65
2022/01/12 12:21:21;;;;;;;51.72;28.35;;;77.20;1638.40;;;;;;5057500;28;20108;-64
2022/01/12 12:23:47;;;;;;;62.10;32.10;;;77.10;1612.80;;;;;;5056910;28;20129;-64
2022/01/12 12:26:18;;;;;;;60.58;36.35;;;77.10;1612.80;;;;;;5056676;28;20049;-64
2022/01/12 12:28:53;;;;;;;61.35;33.88;;;77.10;1612.80;;;;;;5056703;28;20035;-64
2022/01/12 12:31:25;;;;;;;59.00;32.35;;;77.10;1587.20;;;;;;5056848;28;20493;-65
2022/01/12 12:34:03;;;;;;;74.75;41.72;;;77.10;1612.80;;;;;;5056939;28;20028;-60
2022/01/12 12:36:29;;;;;;;91.00;45.97;;;77.10;1638.40;;;;;;5056884;28;20025;-71
2022/01/12 12:39:08;;;;;;;72.07;37.20;;;77.10;1664.00;;;;;;5055942;28;20428;-70
2022/01/12 12:41:42;;;;;;;63.90;34.35;;;77.10;1612.80;;;;;;5055757;28;20048;-63
2022/01/12 12:44:30;;;;;;;55.92;30.55;;;77.10;1612.80;;;;;;5056677;28;20550;-64
2022/01/12 12:47:08;;;;;;;58.30;31.50;;;77.10;1587.20;;;;;;5055975;28;20416;-66
2022/01/12 12:49:47;;;;;;;52.33;31.50;;;77.00;1612.80;;;;;;5056382;28;20033;-66
2022/01/12 12:52:28;;;;;;;51.70;25.95;;;77.10;1638.40;;;;;;5083621;28;20168;-61
2022/01/12 12:54:55;;;;;;;46.22;24.80;;;77.10;1612.80;;;;;;5056027;28;20055;-61
2022/01/12 12:57:21;;;;;;;48.90;25.98;;;77.00;1612.80;;;;;;5056596;28;20029;-60
2022/01/12 12:59:49;;;;;;;54.65;28.33;;;77.10;1612.80;;;;;;5055094;28;20056;-62
2022/01/12 13:02:16;;;;;;;46.10;25.48;;;77.00;1612.80;;;;;;5053757;28;20025;-60
2022/01/12 13:04:42;;;;;;;50.03;26.30;;;77.00;1587.20;;;;;;5055783;28;20048;-65
2022/01/12 13:07:19;;;;;;;47.28;24.05;;;77.10;1612.80;;;;;;5054987;28;20029;-63
2022/01/12 13:09:47;;;;;;;51.08;26.15;;;77.10;1587.20;;;;;;5056429;28;20025;-64
2022/01/12 13:12:13;;;;;;;41.95;24.33;;;77.00;1612.80;;;;;;5056483;28;20021;-69
2022/01/12 13:14:47;;;;;;;48.13;25.13;;;77.10;1612.80;;;;;;5055828;28;20058;-62
2022/01/12 13:17:14;;;;;;;48.42;24.63;;;77.10;1587.20;;;;;;5053338;28;20067;-69
2022/01/12 13:22:34;;;;;;;52.53;27.13;;;77.20;1638.40;;;;;;5055708;28;20488;-60
2022/01/12 13:25:01;;;;;;;57.38;26.05;;;77.30;1792.00;;;;;;5055180;28;20501;-65
2022/01/12 13:27:28;;;;;;;60.25;30.35;;;77.40;1638.40;;;;;;5055048;28;20047;-64
2022/01/12 13:29:54;;;;;;;55.60;27.70;;;77.30;1612.80;;;;;;5055567;28;20470;-68
2022/01/12 13:32:20;;;;;;;60.33;29.42;;;77.30;1638.40;;;;;;5055093;28;20017;-64
2022/01/12 13:35:02;;;;;;;64.50;31.60;;;77.30;1612.80;;;;;;5055142;28;20100;-64
2022/01/12 13:37:28;;;;;;;80.53;34.83;;;77.30;1612.80;;;;;;5054111;28;20405;-69
2022/01/12 13:40:09;;;;;;;102.07;41.00;;;77.30;1638.40;;;;;;5054949;28;20032;-69
2022/01/12 13:42:54;;;;;;;75.90;38.05;;;77.30;1638.40;;;;;;5055248;28;20028;-71
2022/01/12 13:45:37;;;;;;;79.63;36.33;;;77.30;1587.20;;;;;;5052236;28;20045;-70
2022/01/12 13:48:11;;;;;;;80.82;37.42;;;77.30;1612.80;;;;;;5055670;28;20025;-68
2022/01/12 13:50:39;;;;;;;89.53;39.78;;;77.30;1612.80;;;;;;5055738;28;20348;-70
2022/01/12 13:53:05;;;;;;;88.20;41.28;;;77.20;1587.20;;;;;;5055554;28;20036;-69
2022/01/12 13:55:32;;;;;;;66.78;33.92;;;77.20;1612.80;;;;;;5055607;28;20025;-71
2022/01/12 13:58:06;;;;;;;62.22;32.83;;;77.30;1612.80;;;;;;5055488;28;20044;-74
2022/01/12 14:00:34;;;;;;;77.78;37.72;;;77.20;1587.20;;;;;;5055292;28;20045;-73
2022/01/12 14:03:00;;;;;;;81.30;39.55;;;77.20;1587.20;;;;;;5055344;28;20031;-73
2022/01/12 14:05:40;;;;;;;91.32;43.88;;;77.20;1612.80;;;;;;5055283;28;20025;-69
2022/01/12 14:08:16;;;;;;;82.97;39.95;;;77.30;1587.20;;;;;;5055318;28;20473;-74
2022/01/12 14:10:52;;;;;;;78.68;37.97;;;77.20;1587.20;;;;;;5054550;28;20410;-73
2022/01/12 14:13:26;;;;;;;86.38;41.15;;;77.30;1612.80;;;;;;5054697;28;20025;-73
2022/01/12 14:15:52;;;;;;;81.10;39.08;;;77.30;1587.20;;;;;;5055327;28;20068;-73